Milk And Honey — WDF9265 — position and weather

sailwx.info

Track history (hours):
 
Tides and Currents Weather Stations Pressure Air Temp Water Temp Dewpoint Dewpoint Depression Visibility Wind Speed Wind Dir Waves Ship Positions

Milk And Honey

Owner: EKS Chartering Inc, Parsippany, NJ. More information available from US FCC via Universal Licensing System and Coast Guard Vessel Documentation Center.

Last reported at 2018-Feb-01 08:52 UTC. Time now 2018-Feb-18 22:19 UTC.
Position N 16°29' W 062°11'.
Warning: this ship's position is 17 days out of date.

Length 38 m; draft 2.8 m.

Type: Pleasure craft. MMSI: 367503380.

Date/timePositionNaut miles runAvg speedWind from/ knotsBaromVisibWave heightAir tempDewpointWater temp
2018-Feb-01 08:52N 16°29' W 062°11'410.5
2018-Feb-01 08:30N 16°31' W 062°14'1111.1
2018-Feb-01 07:30N 16°40' W 062°22'611.0
2018-Feb-01 07:00N 16°44' W 062°26'1211.0
2018-Feb-01 05:54N 16°52' W 062°34'510.7
2018-Feb-01 05:28N 16°56' W 062°38'4311.0
2018-Feb-01 01:34N 17°31' W 063°04'211.9
2018-Feb-01 01:24N 17°33' W 063°04'511.4
2018-Feb-01 00:59N 17°37' W 063°05'511.1
2018-Feb-01 00:30N 17°43' W 063°06'610.8
2018-Jan-31 23:57N 17°48' W 063°07'310.8
2018-Jan-31 23:41N 17°51' W 063°08'710.7
2018-Jan-31 22:59N 17°59' W 063°09'017.8
2018-Jan-31 22:59N 17°59' W 063°09'510.9
2018-Jan-31 22:29N 18°04' W 063°10'110.1
2018-Jan-31 22:24N 18°05' W 063°10'4 2.7
2018-Jan-31 20:57N 18°04' W 063°06'0 0.0
2018-Jan-31 20:14N 18°04' W 063°06'0 0.0
2018-Jan-31 19:56N 18°04' W 063°06'0 0.0
2018-Jan-31 19:23N 18°04' W 063°06'0 0.4
2018-Jan-31 18:59N 18°05' W 063°05'1 1.0
2018-Jan-31 18:26N 18°05' W 063°05'0 0.0
2018-Jan-31 17:29N 18°05' W 063°05'1 0.5
2018-Jan-31 15:57N 18°04' W 063°06'0 0.0
2018-Jan-31 15:26N 18°04' W 063°06'0 0.0
2018-Jan-31 14:51N 18°04' W 063°06'0 0.1
2018-Jan-31 14:20N 18°04' W 063°06'7 0.4
2018-Jan-30 19:10N 18°09' W 063°11'211.4
2018-Jan-30 19:00N 18°08' W 063°11'510.7
2018-Jan-30 18:30N 18°03' W 063°08'611.2
2018-Jan-30 17:58N 18°00' W 063°03'  
2018-Jan-26 19:08N 18°10' W 063°07'0 0.1
2018-Jan-26 18:45N 18°10' W 063°07'0 0.1
2018-Jan-26 18:24N 18°10' W 063°07'0 0.0
2018-Jan-26 17:42N 18°10' W 063°07'0 0.0
2018-Jan-26 17:25N 18°10' W 063°07'0 0.0
2018-Jan-26 16:57N 18°10' W 063°07'0 0.0
2018-Jan-26 16:28N 18°10' W 063°07'0 0.0
2018-Jan-26 16:00N 18°10' W 063°07'2 3.2
2018-Jan-26 15:29N 18°10' W 063°08'2 3.6
2018-Jan-26 14:58N 18°11' W 063°09'0 0.0
2018-Jan-24 21:24N 18°11' W 063°09'4 9.7
2018-Jan-24 20:59N 18°08' W 063°11'510.7
2018-Jan-24 20:29N 18°03' W 063°08'3 5.3
2018-Jan-24 20:01N 18°02' W 063°06'0 0.1
2018-Jan-24 19:30N 18°02' W 063°06'0 0.0
2018-Jan-24 18:57N 18°02' W 063°06'0 0.0
2018-Jan-24 18:30N 18°02' W 063°06'0 0.0
2018-Jan-24 18:00N 18°02' W 063°06'0 0.0
2018-Jan-24 17:30N 18°02' W 063°06'0 0.0
2018-Jan-24 17:00N 18°02' W 063°06'0 0.0
2018-Jan-24 16:30N 18°02' W 063°06'0 0.0
2018-Jan-24 16:00N 18°02' W 063°06'0 0.0
2018-Jan-24 15:30N 18°02' W 063°06'0 0.0
2018-Jan-24 15:00N 18°02' W 063°06'0 0.0
2018-Jan-24 14:18N 18°02' W 063°06'0 0.0
2018-Jan-24 13:58N 18°02' W 063°06'3 5.4
2018-Jan-24 13:30N 18°00' W 063°04'610.9
2018-Jan-24 12:59N 17°58' W 062°58'  
Track history (hours):
 
Tides and Currents Weather Stations Pressure Air Temp Water Temp Dewpoint Dewpoint Depression Visibility Wind Speed Wind Dir Waves Ship Positions

Milk And Honey

Owner: EKS Chartering Inc, Parsippany, NJ. More information available from US FCC via Universal Licensing System and Coast Guard Vessel Documentation Center.

Last reported at 2018-Feb-01 08:52 UTC. Time now 2018-Feb-18 22:19 UTC.
Position N 16°29' W 062°11'.
Warning: this ship's position is 17 days out of date.

Length 38 m; draft 2.8 m.

Type: Pleasure craft. MMSI: 367503380.

Date/timePositionNaut miles runAvg speedWind from/ knotsBaromVisibWave heightAir tempDewpointWater temp
2018-Feb-01 08:52N 16°29' W 062°11'410.5
2018-Feb-01 08:30N 16°31' W 062°14'1111.1
2018-Feb-01 07:30N 16°40' W 062°22'611.0
2018-Feb-01 07:00N 16°44' W 062°26'1211.0
2018-Feb-01 05:54N 16°52' W 062°34'510.7
2018-Feb-01 05:28N 16°56' W 062°38'4311.0
2018-Feb-01 01:34N 17°31' W 063°04'211.9
2018-Feb-01 01:24N 17°33' W 063°04'511.4
2018-Feb-01 00:59N 17°37' W 063°05'511.1
2018-Feb-01 00:30N 17°43' W 063°06'610.8
2018-Jan-31 23:57N 17°48' W 063°07'310.8
2018-Jan-31 23:41N 17°51' W 063°08'710.7
2018-Jan-31 22:59N 17°59' W 063°09'017.8
2018-Jan-31 22:59N 17°59' W 063°09'510.9
2018-Jan-31 22:29N 18°04' W 063°10'110.1
2018-Jan-31 22:24N 18°05' W 063°10'4 2.7
2018-Jan-31 20:57N 18°04' W 063°06'0 0.0
2018-Jan-31 20:14N 18°04' W 063°06'0 0.0
2018-Jan-31 19:56N 18°04' W 063°06'0 0.0
2018-Jan-31 19:23N 18°04' W 063°06'0 0.4
2018-Jan-31 18:59N 18°05' W 063°05'1 1.0
2018-Jan-31 18:26N 18°05' W 063°05'0 0.0
2018-Jan-31 17:29N 18°05' W 063°05'1 0.5
2018-Jan-31 15:57N 18°04' W 063°06'0 0.0
2018-Jan-31 15:26N 18°04' W 063°06'0 0.0
2018-Jan-31 14:51N 18°04' W 063°06'0 0.1
2018-Jan-31 14:20N 18°04' W 063°06'7 0.4
2018-Jan-30 19:10N 18°09' W 063°11'211.4
2018-Jan-30 19:00N 18°08' W 063°11'510.7
2018-Jan-30 18:30N 18°03' W 063°08'611.2
2018-Jan-30 17:58N 18°00' W 063°03'  
2018-Jan-26 19:08N 18°10' W 063°07'0 0.1
2018-Jan-26 18:45N 18°10' W 063°07'0 0.1
2018-Jan-26 18:24N 18°10' W 063°07'0 0.0
2018-Jan-26 17:42N 18°10' W 063°07'0 0.0
2018-Jan-26 17:25N 18°10' W 063°07'0 0.0
2018-Jan-26 16:57N 18°10' W 063°07'0 0.0
2018-Jan-26 16:28N 18°10' W 063°07'0 0.0
2018-Jan-26 16:00N 18°10' W 063°07'2 3.2
2018-Jan-26 15:29N 18°10' W 063°08'2 3.6
2018-Jan-26 14:58N 18°11' W 063°09'0 0.0
2018-Jan-24 21:24N 18°11' W 063°09'4 9.7
2018-Jan-24 20:59N 18°08' W 063°11'510.7
2018-Jan-24 20:29N 18°03' W 063°08'3 5.3
2018-Jan-24 20:01N 18°02' W 063°06'0 0.1
2018-Jan-24 19:30N 18°02' W 063°06'0 0.0
2018-Jan-24 18:57N 18°02' W 063°06'0 0.0
2018-Jan-24 18:30N 18°02' W 063°06'0 0.0
2018-Jan-24 18:00N 18°02' W 063°06'0 0.0
2018-Jan-24 17:30N 18°02' W 063°06'0 0.0
2018-Jan-24 17:00N 18°02' W 063°06'0 0.0
2018-Jan-24 16:30N 18°02' W 063°06'0 0.0
2018-Jan-24 16:00N 18°02' W 063°06'0 0.0
2018-Jan-24 15:30N 18°02' W 063°06'0 0.0
2018-Jan-24 15:00N 18°02' W 063°06'0 0.0
2018-Jan-24 14:18N 18°02' W 063°06'0 0.0
2018-Jan-24 13:58N 18°02' W 063°06'3 5.4
2018-Jan-24 13:30N 18°00' W 063°04'610.9
2018-Jan-24 12:59N 17°58' W 062°58'  

Dump ship's entire track history